Isle Of Palms, SC

12:13 PM EST on February 10, 2016 (GMT -0500)
Beachwood West | | Change Station
CLOSE
Current Station
Personal Weather Station
Location: Isle Of Palms, SC
Elevation: 8 ft
Nearby Weather Stations
Active Advisory: Special Statement Active Notice: Local Storm Report

Elev 8 ft 32.81 °N, 79.74 °W | Updated 6 minutes ago

Clear
Clear
40.4 °F
Feels Like 36 °F
N
7.0
Wind Variable Wind from WSW
Gusts 17.0 mph

Today
High -- | Low -- °F
--% Chance of Precip.
Yesterday
High -- | Low -- °F
Precip. -- in
Pressure 30.04 in
Visibility 10.0 miles
Clouds Few 4100 ft
Windchill 36 °F
Dew Point 25 °F
Humidity 54%
Rainfall 0.00 in
Snow Depth Not available.
7:07 AM 5:59 PM
Waxing Crescent, 6% visible
METAR KJZI 101655Z AUTO 25015KT 10SM FEW041 04/M07 A3004 RMK AO2
Pressure 30.04 in
Visibility 10.0 miles
Clouds Few 4100 ft
Windchill 36 °F
Dew Point 25 °F
Humidity 54%
Rainfall 0.00 in
Snow Depth Not available.
7:07 AM 5:59 PM
Waxing Crescent, 6% visible
METAR KJZI 101655Z AUTO 25015KT 10SM FEW041 04/M07 A3004 RMK AO2

10-Day Weather Forecast

Almanac

Astronomy

Feb. 10, 2016 Rise Set
Actual Time
Civil Twilight
Nautical Twilight
Astronomical Twilight
Moon
Length of Visible Light
Length of Day
Tomorrow will be .
, % of the Moon is Illuminated

Today's Extremes

State Highs State Lows

Community

WunderPhotos

Upload Photos

1,891,893 photos uploaded!

WunderBlog® & News

Nearby

Air Quality

  Air Quality AQ Index Pollutant
Not available.

Snow Depth

Station Depth Elevation

Earthquake Activity

City Distance Mag. Time & Date
Minimum magnitude displayed is 2.5.

Coastal Water Temperatures

Place Temperature

Stations

Nearby Weather Stations

Station Location Temp. Windchill Dew Point Humidity Wind Precip. Elev Updated Type
                   

Watches & Warnings

Special Statement
Issued: 10:48 AM EST Feb. 10, 2016 – National Weather Service

... Breezy conditions through this afternoon...

West winds are expected to gust as high as around 35 mph through
this afternoon... with a few higher gusts possible... especially on
elevated roadways such as bridges and overpasses. This will make
driving high profile vehicles difficult and could lead to some
weak trees falling due to the wet soil across the area.

Precautionary/preparedness actions...

Be careful when driving high profile vehicles across bridges and
overpasses. Be alert for the possibility that some weak trees
could fall.